Language selection

Features

My Weather Profile Weather Topics  | 

Pacific - North Coast: Past 24 Hour Conditions

 

East Dellwood - 46207

11:00 PM PST 20 January 2020Buoy position: 50.88N 129.93W
Disclaimer

This table is a summary of hourly weather conditions for the past 24 hours.
Please note that these observations might not always be representative of weather conditions over their associated marine area.

Date / Time
(PST)
Wind(knots) Wave height(m) Wave period(s) Pressure(kPa) Air tempC) Water tempC)
20 January 2020
23:00 SE 23 gust 29 4.7 8.0 99.2 8 8
22:00 ESE 27 gust 37 4.8 8.0 99.3 9 8
21:00 ESE 29 gust 39 4.3 8.0 99.3 8 8
20:00 ESE 29 gust 35 4.1 8.0 99.4 8 8
19:00 E 27 gust 33 4.4 14.0 99.6 9 8
18:00 ESE 29 gust 37 3.9 14.0 99.7 9 8
17:00 ESE 27 gust 39 4.0 15.0 99.8 9 8
16:00 ESE 27 gust 33 3.9 16.0 100.0 9 8
15:00 ESE 23 gust 29 3.8 8.0 100.2 9 8
14:00 SE 22 gust 27 3.8 8.0 100.3 8 8
13:00 ESE 22 gust 27 3.8 15.0 100.4 8 8
12:00 ESE 22 gust 29 3.6 15.0 100.5 8 8
11:00 SE 19 gust 23 3.7 14.0 100.5 8 8
10:00 SE 17 gust 22 3.9 16.0 100.5 8 8
9:00 SE 16 gust 19 3.8 16.0 100.5 8 8
8:00 SSE 16 gust 19 3.8 16.0 100.5 8 8
7:00 S 13 gust 17 3.9 16.0 100.4 8 8
6:00 S 13 gust 16 4.1 15.0 100.3 7 8
5:00 SW 10 gust 16 4.2 16.0 100.2 7 8
4:00 WSW 12 gust 16 3.9 16.0 100.2 6 8
3:00 NW 4 gust 8 3.8 17.0 100.0 7 8
2:00 WSW 12 gust 13 3.7 10.0 100.1 7 8
1:00 WSW 6 gust 10 3.9 10.0 100.1 7 8
0:00 SW 8 gust 10 4.1 10.0 100.2 7 8
19 January 2020
23:00 S 6 gust 8 3.9 9.0 100.2 8 8

Zoom-in to make a selection

Map of Pacific - North Coast marine weather areas Middle Nomad - 46004 South Nomad - 46036 Dixon Entrance Central - 46145 South Moresby - 46147 Nanakwa Shoal - 46181 North Hecate Strait - 46183 North Nomad - 46184 South Hecate Strait - 46185 West Sea Otter - 46204 West Dixon Entrance - 46205 East Dellwood - 46207 West Moresby - 46208 Sartine Island Cape St.James Kindakun Rocks Langara Island Masset Municipal Airport Rose Spit Sandspit Airport Bella Bella Airport Bella Coola Airport Bonilla Island Cathedral Point Cumshewa Island Grey Islet Holland Rock Lucy Islands Lightstation Prince Rupert Airport
Legend:
buoy Buoy
land station Land Station

Pacific - North Coast Area

Another Region

What we are doing

Date modified: